createdAt,value
2022-11-09T00:01:40.643Z,100419.00
2022-11-09T00:04:10.989Z,100422.00
2022-11-09T00:06:41.137Z,100424.00
2022-11-09T00:09:12.251Z,100432.00
2022-11-09T00:11:42.167Z,100436.00
2022-11-09T00:14:17.612Z,100424.00
2022-11-09T00:16:50.184Z,100429.00
2022-11-09T00:19:20.037Z,100428.00
2022-11-09T00:21:49.857Z,100420.00
2022-11-09T00:24:20.064Z,100426.00
2022-11-09T00:26:49.925Z,100420.00
2022-11-09T00:29:21.980Z,100420.00
2022-11-09T00:31:54.473Z,100425.00
2022-11-09T00:34:24.319Z,100423.00
2022-11-09T00:36:54.183Z,100421.00
2022-11-09T00:39:24.064Z,100425.00
2022-11-09T00:41:53.931Z,100421.00
2022-11-09T00:44:23.751Z,100421.00
2022-11-09T00:46:56.228Z,100416.00
2022-11-09T00:49:26.071Z,100415.00
2022-11-09T00:51:56.551Z,100417.00
2022-11-09T00:54:26.400Z,100413.00
2022-11-09T00:56:56.512Z,100417.00
2022-11-09T00:59:26.363Z,100420.00
2022-11-09T01:01:58.768Z,100415.00
2022-11-09T01:04:28.625Z,100411.00
2022-11-09T01:06:58.531Z,100411.00
2022-11-09T01:09:28.461Z,100415.00
2022-11-09T01:11:58.337Z,100417.00
2022-11-09T01:14:28.211Z,100418.00
2022-11-09T01:17:00.695Z,100416.00
2022-11-09T01:19:31.364Z,100414.00
2022-11-09T01:22:01.192Z,100405.00
2022-11-09T01:24:31.280Z,100404.00
2022-11-09T01:27:01.100Z,100402.00
2022-11-09T01:29:31.176Z,100402.00
2022-11-09T01:32:03.631Z,100404.00
2022-11-09T01:34:34.345Z,100406.00
2022-11-09T01:37:04.173Z,100398.00
2022-11-09T01:39:33.996Z,100402.00
2022-11-09T01:42:03.835Z,100397.00
2022-11-09T01:44:34.952Z,100388.00
2022-11-09T01:47:10.801Z,100393.00
2022-11-09T01:49:46.980Z,100397.00
2022-11-09T01:52:22.203Z,100392.00
2022-11-09T01:55:00.413Z,100383.00
2022-11-09T01:57:36.925Z,100392.00
2022-11-09T02:00:11.492Z,100389.00
2022-11-09T02:02:53.091Z,100376.00
2022-11-09T02:05:27.242Z,100380.00
2022-11-09T02:08:01.816Z,100388.00
2022-11-09T02:10:36.668Z,100379.00
2022-11-09T02:13:07.001Z,100374.00
2022-11-09T02:15:42.761Z,100378.00
2022-11-09T02:18:17.936Z,100374.00
2022-11-09T02:20:53.243Z,100371.00
2022-11-09T02:23:24.492Z,100366.00
2022-11-09T02:25:59.922Z,100363.00
2022-11-09T02:28:31.604Z,100359.00
2022-11-09T02:31:02.275Z,100361.00
2022-11-09T02:33:32.098Z,100351.00
2022-11-09T02:36:04.503Z,100356.00
2022-11-09T02:38:34.346Z,100352.00
2022-11-09T02:41:04.678Z,100354.00
2022-11-09T02:43:34.889Z,100353.00
2022-11-09T02:46:04.768Z,100354.00
2022-11-09T02:48:34.579Z,100343.00
2022-11-09T02:51:07.151Z,100353.00
2022-11-09T02:53:37.176Z,100361.00
2022-11-09T02:56:07.893Z,100344.00
2022-11-09T02:58:37.741Z,100353.00
2022-11-09T03:01:07.762Z,100346.00
2022-11-09T03:03:37.856Z,100348.00
2022-11-09T03:06:10.421Z,100349.00
2022-11-09T03:08:40.251Z,100360.00
2022-11-09T03:11:10.203Z,100345.00
2022-11-09T03:13:40.080Z,100345.00
2022-11-09T03:16:12.034Z,100349.00
2022-11-09T03:18:41.910Z,100350.00
2022-11-09T03:21:14.346Z,100356.00
2022-11-09T03:23:44.159Z,100366.00
2022-11-09T03:26:14.028Z,100359.00
2022-11-09T03:28:44.181Z,100352.00
2022-11-09T03:31:14.047Z,100345.00
2022-11-09T03:33:44.227Z,100337.00
2022-11-09T03:36:16.657Z,100337.00
2022-11-09T03:38:46.470Z,100339.00
2022-11-09T03:41:16.291Z,100338.00
2022-11-09T03:43:46.107Z,100343.00
2022-11-09T03:46:15.951Z,100324.00
2022-11-09T03:48:45.767Z,100342.00
2022-11-09T03:51:18.211Z,100352.00
2022-11-09T03:53:48.037Z,100353.00
2022-11-09T03:56:18.264Z,100348.00
2022-11-09T03:58:48.149Z,100359.00
2022-11-09T04:01:18.381Z,100359.00
2022-11-09T04:03:48.300Z,100348.00
2022-11-09T04:06:20.734Z,100342.00
2022-11-09T04:08:51.632Z,100343.00
2022-11-09T04:11:21.806Z,100349.00
2022-11-09T04:13:51.667Z,100347.00
2022-11-09T04:16:21.502Z,100349.00
2022-11-09T04:18:51.455Z,100363.00
2022-11-09T04:21:24.211Z,100365.00
2022-11-09T04:23:54.091Z,100357.00
2022-11-09T04:26:23.913Z,100366.00
2022-11-09T04:28:53.770Z,100369.00
2022-11-09T04:31:27.858Z,100368.00
2022-11-09T04:33:58.293Z,100365.00
2022-11-09T04:36:30.726Z,100360.00
2022-11-09T04:39:00.628Z,100358.00
2022-11-09T04:41:31.058Z,100351.00
2022-11-09T04:44:01.027Z,100343.00
2022-11-09T04:46:31.449Z,100353.00
2022-11-09T04:49:01.420Z,100351.00
2022-11-09T04:51:33.833Z,100359.00
2022-11-09T04:54:03.677Z,100358.00
2022-11-09T04:56:33.515Z,100363.00
2022-11-09T04:59:03.346Z,100368.00
2022-11-09T05:01:33.263Z,100362.00
2022-11-09T05:04:03.190Z,100369.00
2022-11-09T05:06:35.737Z,100365.00
2022-11-09T05:09:08.633Z,100380.00
2022-11-09T05:11:39.623Z,100381.00
2022-11-09T05:14:09.439Z,100391.00
2022-11-09T05:16:39.268Z,100384.00
2022-11-09T05:19:09.106Z,100380.00
2022-11-09T05:21:41.494Z,100373.00
2022-11-09T05:24:09.318Z,100386.00
2022-11-09T05:26:42.518Z,100376.00
2022-11-09T05:29:14.983Z,100384.00
2022-11-09T05:31:51.829Z,100373.00
2022-11-09T05:34:22.188Z,100374.00
2022-11-09T05:36:58.141Z,100369.00
2022-11-09T05:39:30.607Z,100380.00
2022-11-09T05:42:00.423Z,100384.00
2022-11-09T05:44:33.000Z,100375.00
2022-11-09T05:47:02.824Z,100372.00
2022-11-09T05:49:32.683Z,100387.00
2022-11-09T05:52:05.091Z,100392.00
2022-11-09T05:54:34.959Z,100391.00
2022-11-09T05:57:04.798Z,100401.00
2022-11-09T05:59:34.659Z,100388.00
2022-11-09T06:02:04.622Z,100399.00
2022-11-09T06:04:34.589Z,100398.00
2022-11-09T06:07:07.069Z,100383.00
2022-11-09T06:09:36.984Z,100387.00
2022-11-09T06:12:07.304Z,100384.00
2022-11-09T06:14:37.142Z,100390.00
2022-11-09T06:17:06.956Z,100389.00
2022-11-09T06:19:36.805Z,100390.00
2022-11-09T06:22:09.319Z,100387.00
2022-11-09T06:24:39.212Z,100396.00
2022-11-09T06:27:09.096Z,100404.00
2022-11-09T06:29:39.001Z,100407.00
2022-11-09T06:32:09.216Z,100415.00
2022-11-09T06:34:39.052Z,100409.00
2022-11-09T06:37:11.480Z,100408.00
2022-11-09T06:39:41.305Z,100415.00
2022-11-09T06:42:11.159Z,100419.00
2022-11-09T06:44:41.002Z,100419.00
2022-11-09T06:47:10.818Z,100408.00
2022-11-09T06:49:40.689Z,100404.00
2022-11-09T06:52:13.088Z,100402.00
2022-11-09T06:54:42.975Z,100414.00
2022-11-09T06:57:12.837Z,100414.00
2022-11-09T06:59:42.690Z,100406.00
2022-11-09T07:02:17.612Z,100420.00
2022-11-09T07:04:47.442Z,100425.00
2022-11-09T07:07:24.911Z,100428.00
2022-11-09T07:09:58.306Z,100439.00
2022-11-09T07:12:28.196Z,100433.00
2022-11-09T07:14:58.064Z,100444.00
2022-11-09T07:17:27.941Z,100436.00
2022-11-09T07:19:57.790Z,100431.00
2022-11-09T07:22:30.939Z,100432.00
2022-11-09T07:25:00.787Z,100424.00
2022-11-09T07:27:30.674Z,100423.00
2022-11-09T07:30:00.487Z,100429.00
2022-11-09T07:32:54.221Z,100421.00
2022-11-09T07:35:20.398Z,100413.00
2022-11-09T07:37:52.821Z,100408.00
2022-11-09T07:40:23.326Z,100398.00
2022-11-09T07:42:53.200Z,100416.00
2022-11-09T07:45:23.024Z,100408.00
2022-11-09T07:47:58.167Z,100414.00
2022-11-09T07:50:28.684Z,100415.00
2022-11-09T07:53:03.905Z,100412.00
2022-11-09T07:55:34.027Z,100406.00
2022-11-09T07:58:07.239Z,100403.00
2022-11-09T08:00:39.607Z,100403.00
2022-11-09T08:03:10.443Z,100409.00
2022-11-09T08:05:40.577Z,100405.00
2022-11-09T08:08:15.706Z,100404.00
2022-11-09T08:10:51.493Z,100425.00
2022-11-09T08:13:22.539Z,100433.00
2022-11-09T08:15:52.756Z,100437.00
2022-11-09T08:18:24.926Z,100460.00
2022-11-09T08:20:54.798Z,100457.00
2022-11-09T08:23:27.215Z,100455.00
2022-11-09T08:25:57.070Z,100461.00
2022-11-09T08:28:26.960Z,100460.00
2022-11-09T08:31:02.353Z,100473.00
2022-11-09T08:33:36.586Z,100464.00
2022-11-09T08:36:13.236Z,100461.00
2022-11-09T08:38:46.912Z,100473.00
2022-11-09T08:41:17.352Z,100450.00
2022-11-09T08:43:47.179Z,100457.00
2022-11-09T08:46:17.029Z,100454.00
2022-11-09T08:48:46.868Z,100444.00
2022-11-09T08:51:16.760Z,100450.00
2022-11-09T08:53:51.819Z,100445.00
2022-11-09T08:56:21.655Z,100450.00
2022-11-09T08:58:51.548Z,100445.00
2022-11-09T09:01:21.640Z,100452.00
2022-11-09T09:03:51.612Z,100465.00
2022-11-09T09:06:21.435Z,100466.00
2022-11-09T09:08:53.898Z,100470.00
2022-11-09T09:11:23.763Z,100465.00
2022-11-09T09:13:53.651Z,100472.00
2022-11-09T09:16:23.463Z,100472.00
2022-11-09T09:18:53.341Z,100463.00
2022-11-09T09:21:23.212Z,100464.00
2022-11-09T09:23:55.700Z,100471.00
2022-11-09T09:26:25.836Z,100488.00
2022-11-09T09:28:55.870Z,100484.00
2022-11-09T09:31:25.900Z,100486.00
2022-11-09T09:33:55.772Z,100479.00
2022-11-09T09:36:27.260Z,100486.00
2022-11-09T09:39:00.199Z,100489.00
2022-11-09T09:41:38.805Z,100487.00
2022-11-09T09:44:25.618Z,100489.00
2022-11-09T09:47:11.928Z,100494.00
2022-11-09T09:49:45.937Z,100485.00
2022-11-09T09:52:24.282Z,100487.00
2022-11-09T09:55:04.183Z,100483.00
2022-11-09T09:57:40.542Z,100482.00
2022-11-09T10:00:21.510Z,100488.00
2022-11-09T10:02:51.987Z,100500.00
2022-11-09T10:05:28.186Z,100497.00
2022-11-09T10:08:08.672Z,100501.00
2022-11-09T10:10:56.212Z,100504.00
2022-11-09T10:14:03.476Z,100508.00
2022-11-09T10:16:42.212Z,100517.00
2022-11-09T10:19:31.201Z,100514.00
2022-11-09T10:22:10.680Z,100514.00
2022-11-09T10:25:20.908Z,100514.00
2022-11-09T10:27:52.122Z,100509.00
2022-11-09T10:30:25.091Z,100503.00
2022-11-09T10:32:59.271Z,100500.00
2022-11-09T10:35:33.912Z,100505.00
2022-11-09T10:38:03.652Z,100504.00
2022-11-09T10:40:39.895Z,100490.00
2022-11-09T10:43:14.785Z,100490.00
2022-11-09T10:45:47.511Z,100480.00
2022-11-09T10:48:17.934Z,100478.00
2022-11-09T10:50:52.692Z,100477.00
2022-11-09T10:53:24.931Z,100475.00
2022-11-09T10:55:57.543Z,100468.00
2022-11-09T10:58:35.828Z,100470.00
2022-11-09T11:01:08.964Z,100470.00
2022-11-09T11:03:40.051Z,100461.00
2022-11-09T11:06:18.170Z,100468.00
2022-11-09T11:08:50.341Z,100456.00
2022-11-09T11:11:34.348Z,100459.00
2022-11-09T11:14:22.767Z,100456.00
2022-11-09T11:16:56.183Z,100440.00
2022-11-09T11:19:37.720Z,100446.00
2022-11-09T11:22:31.730Z,100436.00
2022-11-09T11:25:03.701Z,100438.00
2022-11-09T11:27:43.720Z,100439.00
2022-11-09T11:30:19.832Z,100456.00
2022-11-09T11:32:50.921Z,100451.00
2022-11-09T11:35:34.772Z,100452.00
2022-11-09T11:38:21.438Z,100457.00
2022-11-09T11:41:04.436Z,100464.00
2022-11-09T11:43:50.762Z,100454.00
2022-11-09T11:46:34.035Z,100451.00
2022-11-09T11:49:32.925Z,100457.00
2022-11-09T11:52:10.737Z,100451.00
2022-11-09T11:54:51.743Z,100441.00
2022-11-09T11:57:34.427Z,100445.00
2022-11-09T12:00:15.112Z,100436.00
2022-11-09T12:03:27.447Z,100430.00
2022-11-09T12:06:31.140Z,100430.00
2022-11-09T12:09:13.926Z,100427.00
2022-11-09T12:12:10.201Z,100431.00
2022-11-09T12:14:54.589Z,100422.00
2022-11-09T12:17:33.398Z,100413.00
2022-11-09T12:20:28.885Z,100405.00
2022-11-09T12:23:27.497Z,100412.00
2022-11-09T12:26:17.049Z,100409.00
2022-11-09T12:29:08.953Z,100414.00
2022-11-09T12:31:53.975Z,100424.00
2022-11-09T12:34:27.924Z,100418.00
2022-11-09T12:37:05.215Z,100414.00
2022-11-09T12:39:41.930Z,100419.00
2022-11-09T12:42:21.239Z,100421.00
2022-11-09T12:45:08.238Z,100419.00
2022-11-09T12:47:43.159Z,100421.00
2022-11-09T12:50:16.770Z,100416.00
2022-11-09T12:52:52.494Z,100432.00
2022-11-09T12:55:29.841Z,100416.00
2022-11-09T12:58:01.236Z,100427.00
2022-11-09T13:00:51.274Z,100434.00
2022-11-09T13:03:28.815Z,100439.00
2022-11-09T13:06:27.752Z,100441.00
2022-11-09T13:09:06.976Z,100441.00
2022-11-09T13:11:40.588Z,100434.00
2022-11-09T13:14:39.326Z,100428.00
2022-11-09T13:18:00.578Z,100419.00
2022-11-09T13:20:57.009Z,100422.00
2022-11-09T13:27:04.292Z,100420.00
2022-11-09T13:29:56.271Z,100422.00
2022-11-09T13:32:29.967Z,100406.00
2022-11-09T13:35:01.438Z,100413.00
2022-11-09T13:37:57.057Z,100431.00
2022-11-09T13:40:48.459Z,100420.00
2022-11-09T13:43:31.006Z,100425.00
2022-11-09T13:46:02.902Z,100424.00
2022-11-09T13:48:44.202Z,100429.00
2022-11-09T13:51:17.364Z,100430.00
2022-11-09T13:53:59.858Z,100434.00
2022-11-09T13:56:40.037Z,100435.00
2022-11-09T13:59:20.089Z,100440.00
2022-11-09T14:01:54.056Z,100445.00
2022-11-09T14:04:29.844Z,100442.00
2022-11-09T14:07:06.180Z,100433.00
2022-11-09T14:09:48.545Z,100430.00
2022-11-09T14:12:42.060Z,100437.00
2022-11-09T14:15:33.985Z,100429.00
2022-11-09T14:18:24.751Z,100441.00
2022-11-09T14:21:01.134Z,100436.00
2022-11-09T14:23:34.185Z,100445.00
2022-11-09T14:26:10.415Z,100432.00
2022-11-09T14:28:40.523Z,100440.00
2022-11-09T14:31:25.743Z,100435.00
2022-11-09T14:34:04.159Z,100450.00
2022-11-09T14:36:37.679Z,100462.00
2022-11-09T14:39:15.104Z,100463.00
2022-11-09T14:41:47.843Z,100466.00
2022-11-09T14:44:26.953Z,100458.00
2022-11-09T14:47:02.895Z,100457.00
2022-11-09T14:49:33.183Z,100468.00
2022-11-09T14:52:03.962Z,100466.00
2022-11-09T14:54:33.989Z,100464.00
2022-11-09T14:57:04.302Z,100450.00
2022-11-09T14:59:37.447Z,100447.00
2022-11-09T15:02:13.410Z,100456.00
2022-11-09T15:04:58.580Z,100453.00
2022-11-09T15:07:32.997Z,100448.00
2022-11-09T15:10:06.193Z,100446.00
2022-11-09T15:12:39.199Z,100458.00
2022-11-09T15:15:25.454Z,100452.00
2022-11-09T15:17:58.444Z,100463.00
2022-11-09T15:20:35.351Z,100468.00
2022-11-09T15:23:07.113Z,100466.00
2022-11-09T15:25:40.123Z,100458.00
2022-11-09T15:28:26.612Z,100458.00
2022-11-09T15:31:16.295Z,100461.00
2022-11-09T15:33:53.650Z,100468.00
2022-11-09T15:36:29.874Z,100464.00
2022-11-09T15:39:05.968Z,100462.00
2022-11-09T15:41:36.087Z,100455.00
2022-11-09T15:44:06.770Z,100459.00
2022-11-09T15:46:40.565Z,100457.00
2022-11-09T15:49:23.472Z,100456.00
2022-11-09T15:51:53.866Z,100465.00
2022-11-09T15:54:24.493Z,100466.00
2022-11-09T15:56:54.891Z,100474.00
2022-11-09T15:59:28.129Z,100469.00
2022-11-09T16:01:58.018Z,100473.00
2022-11-09T16:04:30.447Z,100478.00
2022-11-09T16:07:02.689Z,100475.00
2022-11-09T16:09:32.571Z,100479.00
2022-11-09T16:12:02.462Z,100469.00
2022-11-09T16:14:34.701Z,100464.00
2022-11-09T16:17:04.890Z,100465.00
2022-11-09T16:19:39.599Z,100465.00
2022-11-09T16:22:09.492Z,100469.00
2022-11-09T16:24:39.354Z,100470.00
2022-11-09T16:27:17.105Z,100472.00
2022-11-09T16:29:52.289Z,100478.00
2022-11-09T16:32:22.343Z,100475.00
2022-11-09T16:35:15.583Z,100485.00
2022-11-09T16:37:45.635Z,100483.00
2022-11-09T16:40:19.217Z,100478.00
2022-11-09T16:42:49.975Z,100472.00
2022-11-09T16:45:20.394Z,100478.00
2022-11-09T16:47:56.763Z,100477.00
2022-11-09T16:50:29.407Z,100484.00
2022-11-09T16:52:59.598Z,100483.00
2022-11-09T16:55:29.532Z,100494.00
2022-11-09T16:57:59.427Z,100485.00
2022-11-09T17:00:48.666Z,100491.00
2022-11-09T17:03:19.694Z,100486.00
2022-11-09T17:05:52.371Z,100494.00
2022-11-09T17:08:22.572Z,100489.00
2022-11-09T17:10:52.714Z,100494.00
2022-11-09T17:13:22.847Z,100499.00
2022-11-09T17:15:54.655Z,100494.00
2022-11-09T17:18:24.517Z,100501.00
2022-11-09T17:20:56.989Z,100501.00
2022-11-09T17:23:26.859Z,100502.00
2022-11-09T17:26:01.363Z,100500.00
2022-11-09T17:28:32.176Z,100510.00
2022-11-09T17:31:02.297Z,100504.00
2022-11-09T17:33:32.273Z,100503.00
2022-11-09T17:36:07.469Z,100506.00
2022-11-09T17:38:37.744Z,100502.00
2022-11-09T17:41:10.256Z,100519.00
2022-11-09T17:43:43.750Z,100510.00
2022-11-09T17:46:16.404Z,100508.00
2022-11-09T17:48:49.205Z,100510.00
2022-11-09T17:51:23.675Z,100517.00
2022-11-09T17:53:53.648Z,100517.00
2022-11-09T17:56:23.491Z,100522.00
2022-11-09T17:58:53.472Z,100522.00
2022-11-09T18:01:24.465Z,100530.00
2022-11-09T18:03:54.355Z,100541.00
2022-11-09T18:06:29.588Z,100538.00
2022-11-09T18:09:34.355Z,100529.00
2022-11-09T18:11:49.347Z,100543.00
2022-11-09T18:14:19.237Z,100538.00
2022-11-09T18:16:49.172Z,100552.00
2022-11-09T18:19:19.185Z,100548.00
2022-11-09T18:21:51.654Z,100552.00
2022-11-09T18:24:21.786Z,100553.00
2022-11-09T18:26:51.963Z,100561.00
2022-11-09T18:29:22.028Z,100558.00
2022-11-09T18:31:51.968Z,100572.00
2022-11-09T18:34:21.873Z,100571.00
2022-11-09T18:36:54.321Z,100569.00
2022-11-09T18:39:26.248Z,100581.00
2022-11-09T18:41:57.098Z,100587.00
2022-11-09T18:44:27.601Z,100596.00
2022-11-09T18:47:02.107Z,100614.00
2022-11-09T18:49:34.785Z,100631.00
2022-11-09T18:52:08.324Z,100615.00
2022-11-09T18:54:38.444Z,100612.00
2022-11-09T18:57:08.605Z,100625.00
2022-11-09T18:59:40.924Z,100615.00
2022-11-09T19:02:12.728Z,100619.00
2022-11-09T19:04:42.907Z,100617.00
2022-11-09T19:07:15.425Z,100623.00
2022-11-09T19:09:45.776Z,100614.00
2022-11-09T19:12:15.712Z,100607.00
2022-11-09T19:14:45.650Z,100621.00
2022-11-09T19:17:18.634Z,100614.00
2022-11-09T19:19:51.465Z,100615.00
2022-11-09T19:22:23.978Z,100630.00
2022-11-09T19:24:53.817Z,100635.00
2022-11-09T19:27:25.109Z,100641.00
2022-11-09T19:29:54.970Z,100631.00
2022-11-09T19:32:24.821Z,100621.00
2022-11-09T19:34:54.747Z,100627.00
2022-11-09T19:37:27.197Z,100623.00
2022-11-09T19:39:57.094Z,100621.00
2022-11-09T19:42:26.966Z,100629.00
2022-11-09T19:44:57.925Z,100629.00
2022-11-09T19:47:27.798Z,100630.00
2022-11-09T19:49:57.654Z,100630.00
2022-11-09T19:52:30.100Z,100634.00
2022-11-09T19:55:00.062Z,100632.00
2022-11-09T19:57:30.901Z,100638.00
2022-11-09T20:00:00.857Z,100632.00
2022-11-09T20:02:30.751Z,100631.00
2022-11-09T20:05:00.610Z,100641.00
2022-11-09T20:07:35.147Z,100632.00
2022-11-09T20:10:06.643Z,100642.00
2022-11-09T20:12:50.514Z,100641.00
2022-11-09T20:15:21.146Z,100644.00
2022-11-09T20:17:51.316Z,100647.00
2022-11-09T20:20:21.550Z,100655.00
2022-11-09T20:22:54.471Z,100653.00
2022-11-09T20:25:24.491Z,100659.00
2022-11-09T20:27:54.533Z,100663.00
2022-11-09T20:30:24.610Z,100666.00
2022-11-09T20:32:54.681Z,100666.00
2022-11-09T20:35:24.611Z,100667.00
2022-11-09T20:37:57.327Z,100670.00
2022-11-09T20:40:27.438Z,100673.00
2022-11-09T20:42:58.086Z,100673.00
2022-11-09T20:45:28.023Z,100672.00
2022-11-09T20:48:10.544Z,100672.00
2022-11-09T20:50:47.976Z,100675.00
2022-11-09T20:53:20.595Z,100685.00
2022-11-09T20:55:50.559Z,100681.00
2022-11-09T20:58:20.730Z,100677.00
2022-11-09T21:00:50.844Z,100679.00
2022-11-09T21:03:21.368Z,100685.00
2022-11-09T21:05:54.341Z,100693.00
2022-11-09T21:08:30.927Z,100693.00
2022-11-09T21:11:03.929Z,100686.00
2022-11-09T21:13:34.727Z,100690.00
2022-11-09T21:16:09.027Z,100686.00
2022-11-09T21:18:39.048Z,100688.00
2022-11-09T21:21:11.878Z,100678.00
2022-11-09T21:23:57.725Z,100689.00
2022-11-09T21:26:41.003Z,100682.00
2022-11-09T21:29:26.523Z,100692.00
2022-11-09T21:31:56.377Z,100696.00
2022-11-09T21:34:26.263Z,100689.00
2022-11-09T21:36:56.218Z,100689.00
2022-11-09T21:39:28.769Z,100676.00
2022-11-09T21:41:58.643Z,100684.00
2022-11-09T21:44:31.040Z,100689.00
2022-11-09T21:47:01.973Z,100681.00
2022-11-09T21:49:32.180Z,100692.00
2022-11-09T21:52:03.435Z,100687.00
2022-11-09T21:54:35.872Z,100689.00
2022-11-09T21:57:05.969Z,100685.00
2022-11-09T21:59:35.805Z,100689.00
2022-11-09T22:02:05.724Z,100687.00
2022-11-09T22:04:35.800Z,100690.00
2022-11-09T22:07:05.784Z,100701.00
2022-11-09T22:10:06.099Z,100698.00
2022-11-09T22:12:52.610Z,100703.00
2022-11-09T22:15:34.942Z,100705.00
2022-11-09T22:18:05.938Z,100705.00
2022-11-09T22:20:48.286Z,100712.00
2022-11-09T22:23:18.284Z,100708.00
2022-11-09T22:25:50.893Z,100719.00
2022-11-09T22:28:20.734Z,100710.00
2022-11-09T22:30:50.622Z,100727.00
2022-11-09T22:33:25.930Z,100729.00
2022-11-09T22:35:57.728Z,100737.00
2022-11-09T22:38:27.681Z,100742.00
2022-11-09T22:41:03.342Z,100750.00
2022-11-09T22:43:36.220Z,100739.00
2022-11-09T22:46:06.970Z,100748.00
2022-11-09T22:48:37.672Z,100758.00
2022-11-09T22:51:08.887Z,100754.00
2022-11-09T22:53:38.835Z,100761.00
2022-11-09T22:56:13.738Z,100766.00
2022-11-09T22:58:45.124Z,100763.00
2022-11-09T23:01:17.174Z,100766.00
2022-11-09T23:03:47.352Z,100771.00
2022-11-09T23:06:21.826Z,100779.00
2022-11-09T23:08:52.413Z,100765.00
2022-11-09T23:11:26.152Z,100776.00
2022-11-09T23:13:57.978Z,100783.00
2022-11-09T23:16:27.912Z,100778.00
2022-11-09T23:18:55.920Z,100784.00
2022-11-09T23:21:29.132Z,100777.00
2022-11-09T23:24:01.201Z,100783.00
2022-11-09T23:26:32.654Z,100790.00
2022-11-09T23:29:03.053Z,100802.00
2022-11-09T23:31:32.903Z,100794.00
2022-11-09T23:34:07.339Z,100801.00
2022-11-09T23:36:39.632Z,100802.00
2022-11-09T23:39:09.467Z,100804.00
2022-11-09T23:41:41.900Z,100811.00
2022-11-09T23:44:11.970Z,100809.00
2022-11-09T23:46:41.808Z,100811.00
2022-11-09T23:49:11.688Z,100816.00
2022-11-09T23:51:41.519Z,100816.00
2022-11-09T23:54:11.332Z,100817.00
2022-11-09T23:56:43.738Z,100819.00
2022-11-09T23:59:13.583Z,100815.00
